createdAt,value
2022-12-18T00:05:10.309Z,50.93
2022-12-18T00:15:11.756Z,50.90
2022-12-18T00:25:13.191Z,51.83
2022-12-18T00:35:14.674Z,46.57
2022-12-18T00:45:16.296Z,46.33
2022-12-18T00:55:18.725Z,55.03
2022-12-18T01:05:22.079Z,52.00
2022-12-18T01:15:23.511Z,47.43
2022-12-18T01:25:25.057Z,49.40
2022-12-18T01:35:26.523Z,43.10
2022-12-18T01:45:31.446Z,42.27
2022-12-18T01:55:39.307Z,44.77
2022-12-18T02:05:52.027Z,41.57
2022-12-18T02:16:19.241Z,41.77
2022-12-18T02:26:52.315Z,43.23
2022-12-18T02:37:00.413Z,39.53
2022-12-18T02:47:03.472Z,40.07
2022-12-18T02:57:18.718Z,37.43
2022-12-18T03:07:28.791Z,39.57
2022-12-18T03:17:34.330Z,38.03
2022-12-18T03:27:40.067Z,33.63
2022-12-18T03:37:45.157Z,35.50
2022-12-18T03:48:05.778Z,37.67
2022-12-18T03:58:16.462Z,33.67
2022-12-18T04:08:28.628Z,31.47
2022-12-18T04:18:38.890Z,33.27
2022-12-18T04:28:40.732Z,36.60
2022-12-18T04:38:42.308Z,28.03
2022-12-18T04:48:48.101Z,31.27
2022-12-18T04:58:49.718Z,30.27
2022-12-18T05:08:51.241Z,30.10
2022-12-18T05:18:52.759Z,30.87
2022-12-18T05:28:54.228Z,27.17
2022-12-18T05:38:55.675Z,27.73
2022-12-18T05:49:00.700Z,32.97
2022-12-18T05:59:02.599Z,31.43
2022-12-18T06:09:10.407Z,31.43
2022-12-18T06:19:16.397Z,25.30
2022-12-18T06:29:17.844Z,26.03
2022-12-18T06:39:20.314Z,24.70
2022-12-18T06:49:24.163Z,28.37
2022-12-18T06:59:28.820Z,27.87
2022-12-18T07:09:30.710Z,29.07
2022-12-18T07:19:32.143Z,25.63
2022-12-18T07:29:33.821Z,27.60
2022-12-18T07:39:35.276Z,27.40
2022-12-18T07:49:37.403Z,28.03
2022-12-18T07:59:39.248Z,27.90
2022-12-18T08:09:40.668Z,27.07
2022-12-18T08:19:42.121Z,26.57
2022-12-18T08:29:43.588Z,26.47
2022-12-18T08:39:46.937Z,24.87
2022-12-18T08:49:48.686Z,22.47
2022-12-18T08:59:50.229Z,21.57
2022-12-18T09:09:51.923Z,21.03
2022-12-18T09:19:53.663Z,22.07
2022-12-18T09:29:55.113Z,21.03
2022-12-18T09:39:56.610Z,21.93
2022-12-18T09:50:08.177Z,20.80
2022-12-18T10:00:19.986Z,19.50
2022-12-18T10:10:41.260Z,20.73
2022-12-18T10:20:52.938Z,19.87
2022-12-18T10:30:54.525Z,20.03
2022-12-18T10:41:06.320Z,20.73
2022-12-18T10:51:12.299Z,20.50
2022-12-18T11:01:18.008Z,20.17
2022-12-18T11:11:24.172Z,20.63
2022-12-18T11:21:26.453Z,21.37
2022-12-18T11:31:29.759Z,21.13
2022-12-18T11:41:57.615Z,21.80
2022-12-18T11:52:17.372Z,20.27
2022-12-18T12:02:31.332Z,22.73
2022-12-18T12:13:11.590Z,20.73
2022-12-18T12:23:34.936Z,20.97
2022-12-18T12:33:51.779Z,21.33
2022-12-18T12:43:56.281Z,21.03
2022-12-18T12:54:01.387Z,20.43
2022-12-18T13:04:08.137Z,22.43
2022-12-18T13:14:24.114Z,20.20
2022-12-18T13:24:31.689Z,19.97
2022-12-18T13:34:33.800Z,21.77
2022-12-18T13:44:40.993Z,19.77
2022-12-18T13:54:43.929Z,19.00
2022-12-18T14:04:52.553Z,20.03
2022-12-18T14:14:55.204Z,19.33
2022-12-18T14:25:16.048Z,20.60
2022-12-18T14:35:18.869Z,19.87
2022-12-18T14:45:53.089Z,20.33
2022-12-18T14:55:54.589Z,17.93
2022-12-18T15:05:57.362Z,18.97
2022-12-18T15:16:03.891Z,19.50
2022-12-18T15:26:07.150Z,21.10
2022-12-18T15:36:13.669Z,19.40
2022-12-18T15:46:20.523Z,18.20
2022-12-18T15:56:40.674Z,20.50
2022-12-18T16:07:12.604Z,20.17
2022-12-18T16:17:07.167Z,19.17
2022-12-18T16:27:08.712Z,21.27
2022-12-18T16:37:12.583Z,21.43
2022-12-18T16:47:15.379Z,21.53
2022-12-18T16:57:19.604Z,20.03
2022-12-18T17:07:22.615Z,21.37
2022-12-18T17:17:24.506Z,20.60
2022-12-18T17:27:25.985Z,24.17
2022-12-18T17:37:27.831Z,21.50
2022-12-18T17:47:29.460Z,23.27
2022-12-18T17:57:31.108Z,23.57
2022-12-18T18:07:32.668Z,22.83
2022-12-18T18:17:34.304Z,25.87
2022-12-18T18:27:38.895Z,23.60
2022-12-18T18:37:40.695Z,24.50
2022-12-18T18:47:43.177Z,24.00
2022-12-18T18:57:44.640Z,22.70
2022-12-18T19:07:47.476Z,25.70
2022-12-18T19:17:48.932Z,24.87
2022-12-18T19:27:50.739Z,24.30
2022-12-18T19:37:52.231Z,26.50
2022-12-18T19:47:53.758Z,26.57
2022-12-18T19:57:56.949Z,26.00
2022-12-18T20:07:58.527Z,24.97
2022-12-18T20:18:00.089Z,26.90
2022-12-18T20:28:01.749Z,27.90
2022-12-18T20:38:03.236Z,27.10
2022-12-18T20:48:06.327Z,27.70
2022-12-18T20:58:07.997Z,27.97
2022-12-18T21:08:09.976Z,27.10
2022-12-18T21:18:14.322Z,31.93
2022-12-18T21:28:17.084Z,30.13
2022-12-18T21:38:18.533Z,32.10
2022-12-18T21:48:20.036Z,32.40
2022-12-18T21:58:21.464Z,33.50
2022-12-18T22:08:22.900Z,33.43
2022-12-18T22:18:24.640Z,33.63
2022-12-18T22:28:44.859Z,34.93
2022-12-18T22:38:46.935Z,35.27
2022-12-18T22:48:49.680Z,36.67
2022-12-18T22:58:52.022Z,36.53
2022-12-18T23:08:57.914Z,34.70
2022-12-18T23:18:59.514Z,32.67
2022-12-18T23:29:01.666Z,33.90
2022-12-18T23:39:03.480Z,34.30
2022-12-18T23:49:05.798Z,33.80
2022-12-18T23:59:08.121Z,34.00
